Ambrosia Lake, New Mexico
Current Conditions -  °F | °C
As of 11:37 PM on Monday 20 Oct 2014 (Local Time) from KGNT Reporting Station
Clear Clear  
Wind Chill: 45°   Ceiling: Unl
Heat Index: 48°   Visibility: 10mi
Dew Point: 43°   Wind: 8mph
Humidity: 82%   Direction: 170°S
Pressure: 30.23"   Gusts: NA
Location:  35.2644°N, 107.733°W
Report Text: KGNT 210537Z AUTO 17007KT 10SM CLR 09/06 A3023 RMK AO2
Loading
Personal Weather Stations






























Interactive Weather Map New forecast layout! Learn more

10-Day Weather Forecast

Advertisements
Track Severe Weather on mobile